Time;durP1;ratioP1;P1;durP2;ratioP2;P2;SDS_P1;SDS_P2;PMS_P1;PMS_P2;Temp;Humidity;BMP_temperature;BMP_pressure;BME280_temperature;BME280_humidity;BME280_pressure;Samples;Min_cycle;Max_cycle;Signal;HPM_P1;HPM_P2
2023/03/09 00:01:55;;;;;;;10.43;8.83;;;;;;;;;;5063589;28;20690;-51
2023/03/09 00:04:22;;;;;;;12.37;8.23;;;;;;;;;;5066831;28;20249;-52
2023/03/09 00:06:48;;;;;;;12.93;9.23;;;;;;;;;;5065817;28;20422;-54
2023/03/09 00:09:15;;;;;;;9.77;8.30;;;;;;;;;;5063359;28;20240;-53
2023/03/09 00:11:42;;;;;;;10.17;8.23;;;;;;;;;;5063064;28;20897;-51
2023/03/09 00:14:09;;;;;;;13.60;10.23;;;;;;;;;;5060249;28;20560;-52
2023/03/09 00:16:37;;;;;;;12.83;9.67;;;;;;;;;;5063058;28;20748;-51
2023/03/09 00:19:05;;;;;;;11.73;8.87;;;;;;;;;;5059768;28;20317;-53
2023/03/09 00:21:36;;;;;;;13.03;9.50;;;;;;;;;;5065614;28;20246;-52
2023/03/09 00:24:03;;;;;;;11.97;9.03;;;;;;;;;;5064566;28;20238;-53
2023/03/09 00:26:29;;;;;;;13.77;9.00;;;;;;;;;;5065861;28;20245;-53
2023/03/09 00:28:56;;;;;;;13.10;9.80;;;;;;;;;;5056297;28;20362;-51
2023/03/09 00:31:22;;;;;;;16.87;11.03;;;;;;;;;;5062584;28;20317;-52
2023/03/09 00:33:49;;;;;;;13.87;9.03;;;;;;;;;;5065577;28;20253;-52
2023/03/09 00:36:17;;;;;;;13.10;10.97;;;;;;;;;;5067025;28;20616;-52
2023/03/09 00:38:44;;;;;;;18.63;12.17;;;;;;;;;;5063981;28;20233;-52
2023/03/09 00:41:10;;;;;;;13.80;10.90;;;;;;;;;;5068351;28;20298;-52
2023/03/09 00:43:37;;;;;;;13.33;10.87;;;;;;;;;;5068263;28;20326;-51
2023/03/09 00:46:03;;;;;;;12.70;10.30;;;;;;;;;;5067994;28;20242;-51
2023/03/09 00:48:29;;;;;;;17.53;11.63;;;;;;;;;;5062942;28;20678;-52
2023/03/09 00:50:56;;;;;;;18.17;11.50;;;;;;;;;;5060562;28;20257;-51
2023/03/09 00:53:23;;;;;;;16.77;11.70;;;;;;;;;;5079527;28;20668;-52
2023/03/09 00:55:50;;;;;;;15.40;10.43;;;;;;;;;;5082098;28;20230;-50
2023/03/09 00:58:16;;;;;;;14.43;11.37;;;;;;;;;;5066647;28;20233;-52
2023/03/09 01:00:42;;;;;;;14.70;11.37;;;;;;;;;;5061777;28;20748;-58
2023/03/09 01:03:09;;;;;;;14.23;11.70;;;;;;;;;;5065100;28;20298;-52
2023/03/09 01:05:35;;;;;;;13.67;11.03;;;;;;;;;;5079356;28;20307;-51
2023/03/09 01:08:02;;;;;;;14.53;11.50;;;;;;;;;;5069107;28;20240;-52
2023/03/09 01:10:29;;;;;;;15.23;10.83;;;;;;;;;;5072148;28;20903;-52
2023/03/09 01:12:56;;;;;;;16.00;11.17;;;;;;;;;;5071933;28;20265;-51
2023/03/09 01:15:22;;;;;;;13.57;9.83;;;;;;;;;;5074375;28;20238;-52
2023/03/09 01:17:49;;;;;;;16.50;11.17;;;;;;;;;;5074538;28;20241;-54
2023/03/09 01:20:15;;;;;;;14.83;11.47;;;;;;;;;;5078352;28;20298;-51
2023/03/09 01:22:41;;;;;;;14.87;11.30;;;;;;;;;;5075743;28;20871;-52
2023/03/09 01:25:08;;;;;;;13.30;9.97;;;;;;;;;;5069647;28;20264;-52
2023/03/09 01:27:36;;;;;;;14.63;10.57;;;;;;;;;;5050346;28;20258;-50
2023/03/09 01:30:03;;;;;;;14.27;11.53;;;;;;;;;;5054049;28;20238;-52
2023/03/09 01:32:30;;;;;;;15.37;11.57;;;;;;;;;;5057759;28;20292;-51
2023/03/09 01:34:57;;;;;;;14.20;11.30;;;;;;;;;;5065204;28;20253;-53
2023/03/09 01:37:23;;;;;;;13.70;11.00;;;;;;;;;;5067299;28;20234;-52
2023/03/09 01:39:50;;;;;;;13.83;10.37;;;;;;;;;;5059594;28;20241;-52
2023/03/09 01:42:16;;;;;;;15.33;11.10;;;;;;;;;;5061496;28;20241;-52
2023/03/09 01:44:44;;;;;;;16.53;12.50;;;;;;;;;;5057201;28;20614;-51
2023/03/09 01:47:11;;;;;;;17.17;13.00;;;;;;;;;;5060186;28;20296;-52
2023/03/09 01:49:40;;;;;;;19.13;13.37;;;;;;;;;;5064642;28;20231;-52
2023/03/09 01:52:10;;;;;;;14.90;10.37;;;;;;;;;;5061023;28;20237;-52
2023/03/09 01:54:38;;;;;;;18.67;12.37;;;;;;;;;;5065166;28;20280;-54
2023/03/09 01:57:07;;;;;;;18.07;14.17;;;;;;;;;;5061800;28;20571;-52
2023/03/09 01:59:34;;;;;;;19.33;12.90;;;;;;;;;;5064078;28;20239;-52
2023/03/09 02:02:02;;;;;;;19.07;12.87;;;;;;;;;;5062133;28;20255;-52
2023/03/09 02:04:32;;;;;;;18.10;14.10;;;;;;;;;;5065758;28;20253;-54
2023/03/09 02:07:00;;;;;;;17.53;13.10;;;;;;;;;;5058755;28;20628;-54
2023/03/09 02:09:28;;;;;;;20.13;14.33;;;;;;;;;;5064718;28;21161;-51
2023/03/09 02:11:56;;;;;;;19.47;13.37;;;;;;;;;;5059512;28;20238;-51
2023/03/09 02:14:23;;;;;;;19.80;14.37;;;;;;;;;;5064851;28;20602;-51
2023/03/09 02:16:49;;;;;;;19.33;13.90;;;;;;;;;;5061258;28;20242;-51
2023/03/09 02:19:23;;;;;;;19.90;14.30;;;;;;;;;;5058013;28;20227;-51
2023/03/09 02:21:51;;;;;;;19.83;13.70;;;;;;;;;;5053321;28;20257;-51
2023/03/09 02:24:21;;;;;;;18.97;13.73;;;;;;;;;;5062878;28;20335;-52
2023/03/09 02:26:50;;;;;;;17.67;12.97;;;;;;;;;;5060951;28;20242;-51
2023/03/09 02:29:18;;;;;;;17.73;12.97;;;;;;;;;;5062453;28;20244;-52
2023/03/09 02:31:45;;;;;;;21.07;14.63;;;;;;;;;;5062496;28;20234;-51
2023/03/09 02:34:11;;;;;;;19.13;12.97;;;;;;;;;;5064016;28;20316;-51
2023/03/09 02:36:38;;;;;;;18.23;12.80;;;;;;;;;;5063581;28;20231;-52
2023/03/09 02:39:08;;;;;;;19.87;13.87;;;;;;;;;;5061813;28;20770;-52
2023/03/09 02:41:35;;;;;;;17.37;12.37;;;;;;;;;;5063974;28;20241;-51
2023/03/09 02:44:02;;;;;;;18.17;13.07;;;;;;;;;;5055773;28;20261;-52
2023/03/09 02:46:30;;;;;;;18.30;12.77;;;;;;;;;;5063936;28;20262;-51
2023/03/09 02:48:56;;;;;;;19.33;13.73;;;;;;;;;;5059104;28;20827;-51
2023/03/09 02:51:23;;;;;;;19.30;14.03;;;;;;;;;;5064246;28;20321;-53
2023/03/09 02:53:49;;;;;;;23.87;13.70;;;;;;;;;;5064561;28;20242;-51
2023/03/09 02:56:16;;;;;;;18.50;13.77;;;;;;;;;;5067972;28;20230;-52
2023/03/09 02:58:42;;;;;;;18.87;13.33;;;;;;;;;;5063311;28;20234;-52
2023/03/09 03:01:09;;;;;;;19.93;13.37;;;;;;;;;;5065024;28;20235;-52
2023/03/09 03:03:37;;;;;;;20.23;14.30;;;;;;;;;;5072639;28;20235;-52
2023/03/09 03:06:03;;;;;;;20.20;14.33;;;;;;;;;;5081443;28;20235;-52
2023/03/09 03:08:32;;;;;;;20.10;13.93;;;;;;;;;;5068204;28;20257;-51
2023/03/09 03:10:58;;;;;;;22.50;14.97;;;;;;;;;;5065523;28;20234;-51
2023/03/09 03:13:25;;;;;;;20.57;14.23;;;;;;;;;;5064010;28;20724;-52
2023/03/09 03:15:57;;;;;;;20.73;15.27;;;;;;;;;;5062676;28;20234;-51
2023/03/09 03:18:24;;;;;;;22.23;15.33;;;;;;;;;;5061231;28;20235;-52
2023/03/09 03:20:52;;;;;;;20.67;14.13;;;;;;;;;;5065423;28;20238;-51
2023/03/09 03:23:18;;;;;;;24.77;15.50;;;;;;;;;;5063312;28;20315;-52
2023/03/09 03:25:45;;;;;;;21.27;15.73;;;;;;;;;;5063630;28;20240;-51
2023/03/09 03:28:11;;;;;;;20.87;14.57;;;;;;;;;;5063610;28;20239;-51
2023/03/09 03:30:38;;;;;;;17.03;12.00;;;;;;;;;;5062752;28;20263;-52
2023/03/09 03:33:04;;;;;;;18.17;13.30;;;;;;;;;;5063301;28;20312;-52
2023/03/09 03:35:31;;;;;;;18.93;14.83;;;;;;;;;;5061657;28;20262;-52
2023/03/09 03:37:59;;;;;;;17.90;13.50;;;;;;;;;;5062900;28;20267;-52
2023/03/09 03:40:26;;;;;;;19.53;13.73;;;;;;;;;;5062762;28;20779;-51
2023/03/09 03:42:52;;;;;;;21.87;13.03;;;;;;;;;;5061600;28;20827;-52
2023/03/09 03:45:20;;;;;;;16.83;13.37;;;;;;;;;;5064362;28;20246;-52
2023/03/09 03:47:46;;;;;;;20.23;13.70;;;;;;;;;;5061391;28;20669;-53
2023/03/09 03:50:13;;;;;;;17.90;12.90;;;;;;;;;;5062989;28;20240;-52
2023/03/09 03:52:40;;;;;;;21.40;13.23;;;;;;;;;;5063441;28;20226;-52
2023/03/09 03:55:08;;;;;;;17.47;12.40;;;;;;;;;;5063857;28;20230;-51
2023/03/09 03:57:35;;;;;;;20.03;13.50;;;;;;;;;;5066478;28;20276;-52
2023/03/09 04:00:02;;;;;;;16.77;12.03;;;;;;;;;;5066296;28;20236;-52
2023/03/09 04:02:29;;;;;;;20.90;11.73;;;;;;;;;;5070228;28;20285;-51
2023/03/09 04:04:55;;;;;;;18.20;13.33;;;;;;;;;;5067811;28;20226;-52
2023/03/09 04:07:22;;;;;;;18.60;12.90;;;;;;;;;;5065639;28;20324;-51
2023/03/09 04:09:48;;;;;;;17.97;12.33;;;;;;;;;;5064877;28;20775;-52
2023/03/09 04:12:16;;;;;;;20.17;12.80;;;;;;;;;;5067344;28;20239;-51
2023/03/09 04:14:43;;;;;;;18.67;13.13;;;;;;;;;;5066278;28;20237;-52
2023/03/09 04:17:09;;;;;;;17.27;12.60;;;;;;;;;;5065306;28;20234;-52
2023/03/09 04:19:36;;;;;;;17.27;12.50;;;;;;;;;;5065898;28;20227;-51
2023/03/09 04:22:03;;;;;;;19.17;13.53;;;;;;;;;;5066926;28;20269;-52
2023/03/09 04:24:29;;;;;;;17.57;12.90;;;;;;;;;;5067670;28;20764;-51
2023/03/09 04:26:56;;;;;;;16.77;12.23;;;;;;;;;;5065233;28;20399;-51
2023/03/09 04:29:23;;;;;;;19.57;13.43;;;;;;;;;;5065750;28;20638;-52
2023/03/09 04:31:50;;;;;;;18.97;13.63;;;;;;;;;;5065368;28;20261;-51
2023/03/09 04:34:16;;;;;;;21.53;14.00;;;;;;;;;;5067946;28;20230;-52
2023/03/09 04:36:43;;;;;;;14.90;11.73;;;;;;;;;;5058933;28;20775;-52
2023/03/09 04:39:09;;;;;;;19.07;13.43;;;;;;;;;;5064176;28;20234;-51
2023/03/09 04:41:36;;;;;;;19.20;14.03;;;;;;;;;;5066520;28;20324;-52
2023/03/09 04:44:02;;;;;;;20.27;12.97;;;;;;;;;;5067114;28;20262;-53
2023/03/09 04:46:30;;;;;;;22.33;14.93;;;;;;;;;;5061787;28;20257;-51
2023/03/09 04:48:57;;;;;;;22.10;14.33;;;;;;;;;;5065351;28;20243;-52
2023/03/09 04:51:24;;;;;;;19.67;14.97;;;;;;;;;;5061697;28;20664;-52
2023/03/09 04:53:50;;;;;;;18.30;12.93;;;;;;;;;;5066364;28;20334;-51
2023/03/09 04:56:16;;;;;;;20.03;14.60;;;;;;;;;;5067085;28;20266;-51
2023/03/09 04:58:43;;;;;;;19.40;13.50;;;;;;;;;;5064810;28;20293;-51
2023/03/09 05:01:09;;;;;;;22.77;15.73;;;;;;;;;;5068199;28;20237;-51
2023/03/09 05:03:37;;;;;;;21.20;15.63;;;;;;;;;;5070078;28;20295;-52
2023/03/09 05:06:04;;;;;;;20.63;14.33;;;;;;;;;;5076425;28;20887;-56
2023/03/09 05:08:32;;;;;;;21.77;15.50;;;;;;;;;;5082633;28;20244;-62
2023/03/09 05:10:58;;;;;;;19.27;14.50;;;;;;;;;;5083007;28;20292;-54
2023/03/09 05:13:25;;;;;;;20.97;15.40;;;;;;;;;;5072420;28;20242;-53
2023/03/09 05:15:52;;;;;;;22.00;15.13;;;;;;;;;;5065080;28;20231;-53
2023/03/09 05:18:18;;;;;;;20.67;14.30;;;;;;;;;;5064804;28;20237;-54
2023/03/09 05:20:46;;;;;;;20.77;15.23;;;;;;;;;;5069265;28;20240;-52
2023/03/09 05:23:13;;;;;;;19.00;15.57;;;;;;;;;;5077317;28;20237;-52
2023/03/09 05:25:39;;;;;;;19.67;14.97;;;;;;;;;;5070285;28;20238;-52
2023/03/09 05:28:06;;;;;;;21.23;14.73;;;;;;;;;;5068640;28;20240;-51
2023/03/09 05:30:33;;;;;;;29.93;16.57;;;;;;;;;;5065069;28;20265;-52
2023/03/09 05:32:59;;;;;;;20.90;15.87;;;;;;;;;;5065476;28;20238;-53
2023/03/09 05:35:26;;;;;;;20.37;16.07;;;;;;;;;;5055791;28;20233;-51
2023/03/09 05:37:54;;;;;;;20.40;15.20;;;;;;;;;;5065140;28;20258;-51
2023/03/09 05:40:22;;;;;;;17.53;14.13;;;;;;;;;;5064443;28;20344;-52
2023/03/09 05:42:49;;;;;;;22.60;16.53;;;;;;;;;;5065710;28;20246;-51
2023/03/09 05:45:15;;;;;;;23.57;16.03;;;;;;;;;;5066353;28;20234;-52
2023/03/09 05:47:42;;;;;;;22.43;15.17;;;;;;;;;;5067269;28;20720;-52
2023/03/09 05:50:09;;;;;;;20.07;14.13;;;;;;;;;;5081372;28;20514;-57
2023/03/09 05:52:36;;;;;;;23.90;16.27;;;;;;;;;;5084556;28;20234;-53
2023/03/09 05:55:04;;;;;;;18.80;14.00;;;;;;;;;;5084700;28;20264;-52
2023/03/09 05:57:30;;;;;;;20.77;15.87;;;;;;;;;;5085177;28;20231;-53
2023/03/09 05:59:57;;;;;;;21.47;15.93;;;;;;;;;;5086853;28;20231;-55
2023/03/09 06:02:23;;;;;;;19.87;14.83;;;;;;;;;;5078759;28;20311;-52
2023/03/09 06:04:50;;;;;;;19.40;14.23;;;;;;;;;;5068344;28;20242;-51
2023/03/09 06:07:17;;;;;;;20.70;15.00;;;;;;;;;;5068298;28;20234;-52
2023/03/09 06:09:44;;;;;;;18.57;13.93;;;;;;;;;;5067079;28;20312;-55
2023/03/09 06:12:12;;;;;;;19.40;14.60;;;;;;;;;;5069164;28;20302;-52
2023/03/09 06:14:38;;;;;;;21.63;15.33;;;;;;;;;;5067043;28;20845;-53
2023/03/09 06:17:05;;;;;;;18.67;13.63;;;;;;;;;;5065846;28;20268;-52
2023/03/09 06:19:32;;;;;;;21.97;13.90;;;;;;;;;;5066856;28;20238;-52
2023/03/09 06:21:58;;;;;;;21.70;14.87;;;;;;;;;;5068402;28;20238;-53
2023/03/09 06:24:25;;;;;;;21.50;14.13;;;;;;;;;;5065592;28;20242;-51
2023/03/09 06:26:51;;;;;;;17.03;12.97;;;;;;;;;;5065459;28;20816;-51
2023/03/09 06:29:19;;;;;;;19.67;14.23;;;;;;;;;;5063766;28;20258;-53
2023/03/09 06:31:46;;;;;;;18.97;13.90;;;;;;;;;;5065911;28;20230;-52
2023/03/09 06:34:12;;;;;;;22.00;15.57;;;;;;;;;;5062027;28;20788;-52
2023/03/09 06:36:39;;;;;;;19.80;14.60;;;;;;;;;;5066104;28;20230;-52
2023/03/09 06:39:05;;;;;;;25.67;15.03;;;;;;;;;;5069248;28;20317;-53
2023/03/09 06:41:32;;;;;;;18.63;13.93;;;;;;;;;;5057631;28;20238;-54
2023/03/09 06:43:59;;;;;;;17.43;12.73;;;;;;;;;;5066474;28;20238;-52
2023/03/09 06:46:27;;;;;;;17.63;13.10;;;;;;;;;;5065450;28;20295;-52
2023/03/09 06:48:54;;;;;;;22.17;14.03;;;;;;;;;;5064586;28;20234;-53
2023/03/09 06:51:20;;;;;;;16.77;13.40;;;;;;;;;;5065834;28;20601;-52
2023/03/09 06:53:47;;;;;;;17.53;12.67;;;;;;;;;;5065781;28;20231;-52
2023/03/09 06:56:13;;;;;;;18.97;12.80;;;;;;;;;;5066080;28;20238;-51
2023/03/09 06:58:40;;;;;;;18.00;13.23;;;;;;;;;;5063022;28;20245;-53
2023/03/09 07:01:07;;;;;;;18.13;13.03;;;;;;;;;;5065272;28;20287;-51
2023/03/09 07:03:35;;;;;;;19.40;13.10;;;;;;;;;;5065434;28;20791;-52
2023/03/09 07:06:02;;;;;;;21.63;14.23;;;;;;;;;;5066009;28;20238;-53
2023/03/09 07:08:28;;;;;;;18.10;11.83;;;;;;;;;;5064227;28;20246;-53
2023/03/09 07:10:55;;;;;;;16.60;12.53;;;;;;;;;;5064668;28;20238;-51
2023/03/09 07:13:21;;;;;;;17.87;12.60;;;;;;;;;;5064339;28;20247;-51
2023/03/09 07:15:48;;;;;;;15.60;12.53;;;;;;;;;;5064322;28;20237;-52
2023/03/09 07:18:14;;;;;;;15.77;12.03;;;;;;;;;;5062494;28;20230;-52
2023/03/09 07:20:42;;;;;;;19.47;12.93;;;;;;;;;;5063875;28;20640;-53
2023/03/09 07:23:09;;;;;;;14.97;12.03;;;;;;;;;;5054981;28;20237;-52
2023/03/09 07:25:37;;;;;;;14.57;12.33;;;;;;;;;;5062171;28;20649;-53
2023/03/09 07:28:04;;;;;;;14.97;12.00;;;;;;;;;;5062379;28;20241;-52
2023/03/09 07:30:31;;;;;;;15.00;12.40;;;;;;;;;;5062984;28;20618;-51
2023/03/09 07:32:57;;;;;;;16.57;12.57;;;;;;;;;;5063484;28;20262;-52
2023/03/09 07:35:24;;;;;;;17.83;12.07;;;;;;;;;;5062770;28;20228;-52
2023/03/09 07:37:52;;;;;;;14.77;12.40;;;;;;;;;;5062564;28;20268;-52
2023/03/09 07:40:19;;;;;;;17.60;12.13;;;;;;;;;;5060273;28;20318;-52
2023/03/09 07:42:49;;;;;;;16.33;11.80;;;;;;;;;;5061156;28;20226;-54
2023/03/09 07:45:16;;;;;;;16.60;11.13;;;;;;;;;;5060226;28;20747;-51
2023/03/09 07:47:42;;;;;;;16.87;12.13;;;;;;;;;;5062353;28;20234;-51
2023/03/09 07:50:09;;;;;;;15.93;11.53;;;;;;;;;;5062604;28;20237;-54
2023/03/09 07:52:37;;;;;;;19.70;10.83;;;;;;;;;;5059497;28;20597;-53
2023/03/09 07:55:07;;;;;;;21.70;11.57;;;;;;;;;;5052927;28;20232;-51
2023/03/09 07:57:34;;;;;;;20.00;11.33;;;;;;;;;;5063026;28;20316;-52
2023/03/09 08:00:05;;;;;;;14.50;11.87;;;;;;;;;;5057420;28;20302;-52
2023/03/09 08:02:32;;;;;;;15.37;11.37;;;;;;;;;;5051598;28;20313;-51
2023/03/09 08:04:58;;;;;;;15.53;12.53;;;;;;;;;;5062809;28;20317;-52
2023/03/09 08:07:25;;;;;;;15.80;12.27;;;;;;;;;;5057535;28;20234;-51
2023/03/09 08:09:52;;;;;;;15.97;10.70;;;;;;;;;;5058511;28;20231;-51
2023/03/09 08:12:20;;;;;;;22.07;11.13;;;;;;;;;;5052417;28;20280;-52
2023/03/09 08:14:47;;;;;;;16.83;12.07;;;;;;;;;;5054895;28;20309;-52
2023/03/09 08:17:13;;;;;;;18.00;12.30;;;;;;;;;;5060076;28;20231;-51
2023/03/09 08:19:40;;;;;;;14.10;11.33;;;;;;;;;;5061520;28;20295;-52
2023/03/09 08:22:07;;;;;;;17.53;10.60;;;;;;;;;;5052842;28;20254;-53
2023/03/09 08:24:33;;;;;;;15.60;13.07;;;;;;;;;;5059833;28;20602;-52
2023/03/09 08:27:00;;;;;;;14.33;11.00;;;;;;;;;;5063097;28;20317;-51
2023/03/09 08:29:28;;;;;;;14.27;11.03;;;;;;;;;;5063879;28;20327;-52
2023/03/09 08:31:55;;;;;;;15.97;12.13;;;;;;;;;;5058367;28;20230;-51
2023/03/09 08:34:21;;;;;;;16.00;12.07;;;;;;;;;;5056730;28;20319;-51
2023/03/09 08:36:47;;;;;;;15.80;12.30;;;;;;;;;;5059846;28;20265;-52
2023/03/09 08:39:14;;;;;;;13.53;11.97;;;;;;;;;;5056750;28;20643;-51
2023/03/09 08:41:40;;;;;;;13.23;10.70;;;;;;;;;;5061594;28;20238;-51
2023/03/09 08:44:07;;;;;;;16.37;12.53;;;;;;;;;;5063672;28;20245;-52
2023/03/09 08:46:35;;;;;;;14.63;12.90;;;;;;;;;;5063218;28;20227;-52
2023/03/09 08:49:02;;;;;;;18.57;12.47;;;;;;;;;;5064749;28;20277;-51
2023/03/09 08:51:29;;;;;;;16.73;12.63;;;;;;;;;;5058766;28;20257;-52
2023/03/09 08:53:56;;;;;;;19.73;13.93;;;;;;;;;;5063816;28;20234;-51
2023/03/09 08:56:23;;;;;;;15.80;12.83;;;;;;;;;;5054094;28;20330;-50
2023/03/09 08:58:49;;;;;;;17.93;14.00;;;;;;;;;;5053026;28;20234;-52
2023/03/09 09:01:16;;;;;;;19.97;13.00;;;;;;;;;;5051947;28;20241;-52
2023/03/09 09:03:44;;;;;;;19.13;13.57;;;;;;;;;;5053729;28;20291;-52
2023/03/09 09:06:11;;;;;;;17.83;13.53;;;;;;;;;;5059709;28;21004;-52
2023/03/09 09:08:38;;;;;;;17.60;13.87;;;;;;;;;;5054540;28;20242;-52
2023/03/09 09:11:06;;;;;;;18.07;14.00;;;;;;;;;;5055961;28;20234;-53
2023/03/09 09:13:32;;;;;;;15.13;12.10;;;;;;;;;;5056681;28;20876;-53
2023/03/09 09:15:59;;;;;;;17.17;14.13;;;;;;;;;;5066602;28;20226;-52
2023/03/09 09:18:26;;;;;;;16.33;13.27;;;;;;;;;;5060557;28;20580;-53
2023/03/09 09:20:54;;;;;;;16.87;13.27;;;;;;;;;;5061902;28;20238;-52
2023/03/09 09:23:21;;;;;;;19.00;14.00;;;;;;;;;;5056437;28;20261;-53
2023/03/09 09:25:54;;;;;;;16.40;14.10;;;;;;;;;;5062876;28;20246;-53
2023/03/09 09:28:21;;;;;;;15.97;14.23;;;;;;;;;;5065478;28;20249;-52
2023/03/09 09:30:53;;;;;;;19.40;14.87;;;;;;;;;;5063360;28;20226;-52
2023/03/09 09:33:19;;;;;;;19.03;14.37;;;;;;;;;;5062542;28;20305;-52
2023/03/09 09:35:55;;;;;;;18.00;14.37;;;;;;;;;;5062022;28;20226;-51
2023/03/09 09:38:22;;;;;;;16.33;14.27;;;;;;;;;;5060972;28;20239;-51
2023/03/09 09:40:49;;;;;;;15.83;14.10;;;;;;;;;;5064213;28;20276;-52
2023/03/09 09:43:16;;;;;;;19.67;15.40;;;;;;;;;;5064150;28;20246;-52
2023/03/09 09:45:43;;;;;;;17.47;14.80;;;;;;;;;;5058778;28;20320;-53
2023/03/09 09:48:14;;;;;;;19.03;15.03;;;;;;;;;;5062478;28;20231;-53
2023/03/09 09:50:50;;;;;;;20.73;15.20;;;;;;;;;;5059266;28;20238;-51
2023/03/09 09:53:21;;;;;;;17.93;14.37;;;;;;;;;;5061461;28;20238;-53
2023/03/09 09:55:50;;;;;;;19.77;15.03;;;;;;;;;;5062179;28;20318;-52
2023/03/09 09:58:23;;;;;;;21.03;15.97;;;;;;;;;;5056021;28;20326;-52
2023/03/09 10:00:51;;;;;;;18.07;15.00;;;;;;;;;;5063914;28;20241;-55
2023/03/09 10:03:20;;;;;;;17.50;15.00;;;;;;;;;;5075964;28;20261;-54
2023/03/09 10:05:49;;;;;;;19.93;14.83;;;;;;;;;;5075159;27;20230;-51
2023/03/09 10:08:26;;;;;;;19.30;15.63;;;;;;;;;;5075367;28;20230;-53
2023/03/09 10:10:53;;;;;;;19.37;14.93;;;;;;;;;;5062593;28;20316;-52
2023/03/09 10:13:23;;;;;;;17.00;14.33;;;;;;;;;;5065577;28;20609;-52
2023/03/09 10:15:49;;;;;;;16.50;13.77;;;;;;;;;;5063036;28;20229;-52
2023/03/09 10:18:18;;;;;;;17.03;14.43;;;;;;;;;;5061189;28;20321;-52
2023/03/09 10:20:47;;;;;;;18.73;14.37;;;;;;;;;;5059459;28;20254;-52
2023/03/09 10:23:19;;;;;;;18.03;14.57;;;;;;;;;;5060494;28;20340;-51
2023/03/09 10:25:48;;;;;;;19.47;15.37;;;;;;;;;;5065247;28;20698;-52
2023/03/09 10:28:17;;;;;;;19.40;15.17;;;;;;;;;;5060824;28;20243;-53
2023/03/09 10:30:45;;;;;;;20.20;15.70;;;;;;;;;;5056803;28;20250;-51
2023/03/09 10:33:15;;;;;;;17.20;15.20;;;;;;;;;;5069823;28;20624;-51
2023/03/09 10:35:43;;;;;;;19.57;15.83;;;;;;;;;;5059693;28;20234;-52
2023/03/09 10:38:12;;;;;;;17.53;14.57;;;;;;;;;;5061290;28;20243;-51
2023/03/09 10:40:42;;;;;;;20.13;16.07;;;;;;;;;;5064851;28;20231;-52
2023/03/09 10:43:13;;;;;;;17.30;14.50;;;;;;;;;;5058205;28;20642;-52
2023/03/09 10:45:40;;;;;;;20.33;15.47;;;;;;;;;;5062313;28;20648;-52
2023/03/09 10:48:07;;;;;;;19.17;15.57;;;;;;;;;;5056092;28;20233;-51
2023/03/09 10:50:35;;;;;;;19.80;16.00;;;;;;;;;;5061550;28;20234;-53
2023/03/09 10:53:22;;;;;;;17.20;15.30;;;;;;;;;;5060812;28;20827;-53
2023/03/09 10:55:48;;;;;;;19.50;16.03;;;;;;;;;;5059949;28;20231;-53
2023/03/09 10:58:18;;;;;;;18.10;15.17;;;;;;;;;;5058865;28;20230;-51
2023/03/09 11:01:02;;;;;;;19.97;14.83;;;;;;;;;;5063937;28;20265;-51
2023/03/09 11:03:36;;;;;;;20.03;15.50;;;;;;;;;;5063575;28;20336;-52
2023/03/09 11:06:26;;;;;;;17.03;14.40;;;;;;;;;;5063751;28;20239;-52
2023/03/09 11:08:57;;;;;;;19.77;16.43;;;;;;;;;;5049292;28;20240;-52
2023/03/09 11:11:25;;;;;;;18.63;15.57;;;;;;;;;;5061383;28;20252;-52
2023/03/09 11:13:53;;;;;;;20.67;15.53;;;;;;;;;;5060664;28;20241;-52
2023/03/09 11:16:21;;;;;;;18.53;15.13;;;;;;;;;;5068051;28;20317;-52
2023/03/09 11:18:48;;;;;;;22.07;15.80;;;;;;;;;;5070112;28;20314;-55
2023/03/09 11:21:21;;;;;;;20.60;16.47;;;;;;;;;;5071623;28;20230;-52
2023/03/09 11:23:49;;;;;;;19.57;15.87;;;;;;;;;;5066684;28;20711;-55
2023/03/09 11:26:17;;;;;;;20.10;16.03;;;;;;;;;;5067807;28;20234;-54
2023/03/09 11:28:49;;;;;;;19.93;16.63;;;;;;;;;;5065467;28;20252;-58
2023/03/09 11:31:18;;;;;;;19.77;16.83;;;;;;;;;;5064108;28;20712;-52
2023/03/09 11:33:45;;;;;;;20.70;15.73;;;;;;;;;;5066222;28;20325;-52
2023/03/09 11:36:14;;;;;;;22.10;16.17;;;;;;;;;;5058972;28;20231;-52
2023/03/09 11:38:41;;;;;;;17.73;14.60;;;;;;;;;;5067775;28;20249;-51
2023/03/09 11:41:13;;;;;;;20.63;16.27;;;;;;;;;;5070785;28;20295;-53
2023/03/09 11:43:41;;;;;;;23.20;17.43;;;;;;;;;;5065523;28;20309;-52
2023/03/09 11:46:10;;;;;;;22.50;16.77;;;;;;;;;;5065366;28;20234;-52
2023/03/09 11:48:41;;;;;;;22.70;17.53;;;;;;;;;;5069374;28;20243;-52
2023/03/09 11:51:10;;;;;;;20.53;15.77;;;;;;;;;;5069503;28;20234;-51
2023/03/09 11:53:37;;;;;;;21.30;16.87;;;;;;;;;;5065507;28;20325;-51
2023/03/09 11:56:14;;;;;;;24.83;16.93;;;;;;;;;;5065238;28;20266;-54
2023/03/09 11:58:42;;;;;;;22.80;17.20;;;;;;;;;;5065996;28;20309;-52
2023/03/09 12:01:13;;;;;;;21.07;16.63;;;;;;;;;;5069569;28;20618;-52
2023/03/09 12:03:43;;;;;;;23.80;17.60;;;;;;;;;;5069922;28;20326;-53
2023/03/09 12:06:22;;;;;;;23.70;18.60;;;;;;;;;;5071663;28;20256;-54
2023/03/09 12:08:50;;;;;;;19.20;17.03;;;;;;;;;;5067376;28;20621;-52
2023/03/09 12:11:18;;;;;;;24.83;18.00;;;;;;;;;;5071565;28;20643;-52
2023/03/09 12:13:48;;;;;;;24.73;18.73;;;;;;;;;;5069379;28;20293;-51
2023/03/09 12:16:16;;;;;;;22.83;17.63;;;;;;;;;;5068244;28;20236;-51
2023/03/09 12:18:47;;;;;;;21.73;17.83;;;;;;;;;;5070743;28;21000;-52
2023/03/09 12:21:13;;;;;;;23.03;17.37;;;;;;;;;;5065741;28;20762;-51
2023/03/09 12:23:44;;;;;;;21.30;17.23;;;;;;;;;;5067572;28;20305;-56
2023/03/09 12:26:19;;;;;;;21.83;17.43;;;;;;;;;;5070839;28;20286;-57
2023/03/09 12:28:55;;;;;;;23.17;18.10;;;;;;;;;;5065112;28;20252;-53
2023/03/09 12:31:29;;;;;;;26.63;18.20;;;;;;;;;;5070285;28;20325;-52
2023/03/09 12:34:04;;;;;;;122.83;41.20;;;;;;;;;;5070075;28;20241;-52
2023/03/09 12:36:31;;;;;;;46.27;24.03;;;;;;;;;;5069760;28;20312;-56
2023/03/09 12:39:16;;;;;;;38.10;22.03;;;;;;;;;;5069560;28;20241;-52
2023/03/09 12:41:56;;;;;;;24.13;17.97;;;;;;;;;;5065598;28;20237;-53
2023/03/09 12:44:37;;;;;;;27.67;19.13;;;;;;;;;;5065828;28;20234;-53
2023/03/09 12:47:04;;;;;;;21.60;17.67;;;;;;;;;;5064283;28;20247;-52
2023/03/09 12:49:34;;;;;;;23.27;18.03;;;;;;;;;;5070124;28;20330;-52
2023/03/09 12:52:25;;;;;;;22.10;17.23;;;;;;;;;;5071525;28;20238;-52
2023/03/09 12:54:56;;;;;;;23.37;17.97;;;;;;;;;;5068479;28;20348;-51
2023/03/09 12:57:23;;;;;;;24.40;16.83;;;;;;;;;;5065366;28;20318;-52
2023/03/09 12:59:50;;;;;;;24.97;18.23;;;;;;;;;;5070114;28;20234;-51
2023/03/09 13:02:27;;;;;;;23.03;18.83;;;;;;;;;;5065336;28;20250;-52
2023/03/09 13:05:20;;;;;;;23.27;19.13;;;;;;;;;;5064834;28;20248;-53
2023/03/09 13:07:52;;;;;;;21.43;17.20;;;;;;;;;;5061055;28;20249;-51
2023/03/09 13:10:28;;;;;;;18.60;16.07;;;;;;;;;;5064073;28;20743;-51
2023/03/09 13:12:55;;;;;;;24.27;17.70;;;;;;;;;;5065911;28;20241;-51
2023/03/09 13:15:23;;;;;;;22.17;17.07;;;;;;;;;;5063304;28;20604;-51
2023/03/09 13:18:12;;;;;;;20.17;15.57;;;;;;;;;;5065051;28;20307;-52
2023/03/09 13:20:42;;;;;;;21.27;17.33;;;;;;;;;;5064675;28;20813;-52
2023/03/09 13:23:11;;;;;;;22.73;16.43;;;;;;;;;;5069084;28;20244;-52
2023/03/09 13:25:42;;;;;;;20.40;16.00;;;;;;;;;;5069421;28;21118;-54
2023/03/09 13:28:17;;;;;;;20.23;16.43;;;;;;;;;;5063222;28;20231;-53
2023/03/09 13:30:45;;;;;;;25.43;17.90;;;;;;;;;;5067145;28;20245;-52
2023/03/09 13:33:23;;;;;;;23.50;18.43;;;;;;;;;;5065641;28;20270;-52
2023/03/09 13:35:55;;;;;;;20.87;16.60;;;;;;;;;;5065516;28;20231;-51
2023/03/09 13:38:24;;;;;;;18.60;15.50;;;;;;;;;;5058103;28;20241;-51
2023/03/09 13:40:52;;;;;;;19.83;16.33;;;;;;;;;;5060596;28;20229;-52
2023/03/09 13:43:19;;;;;;;22.93;17.37;;;;;;;;;;5063707;28;20229;-52
2023/03/09 13:45:56;;;;;;;23.53;16.77;;;;;;;;;;5064307;28;20231;-52
2023/03/09 13:48:22;;;;;;;22.20;16.63;;;;;;;;;;5060958;28;20768;-52
2023/03/09 13:50:49;;;;;;;22.67;17.53;;;;;;;;;;5061148;28;20250;-52
2023/03/09 13:53:24;;;;;;;22.67;17.30;;;;;;;;;;5062699;28;20755;-52
2023/03/09 13:55:54;;;;;;;20.23;15.03;;;;;;;;;;5061963;28;20313;-52
2023/03/09 13:58:21;;;;;;;22.70;16.40;;;;;;;;;;5062175;28;20782;-52
2023/03/09 14:00:51;;;;;;;23.63;17.73;;;;;;;;;;5065081;28;20233;-53
2023/03/09 14:03:18;;;;;;;22.17;16.13;;;;;;;;;;5065018;28;20293;-52
2023/03/09 14:05:53;;;;;;;20.20;16.57;;;;;;;;;;5064752;28;20235;-52
2023/03/09 14:08:21;;;;;;;21.93;16.53;;;;;;;;;;5064179;28;20233;-52
2023/03/09 14:10:49;;;;;;;25.13;16.10;;;;;;;;;;5067065;28;20258;-52
2023/03/09 14:13:16;;;;;;;21.67;17.63;;;;;;;;;;5064134;28;20902;-52
2023/03/09 14:15:44;;;;;;;23.67;16.37;;;;;;;;;;5067647;28;20245;-52
2023/03/09 14:18:20;;;;;;;22.17;15.60;;;;;;;;;;5061462;28;20738;-52
2023/03/09 14:20:46;;;;;;;21.73;16.53;;;;;;;;;;5062363;28;20242;-53
2023/03/09 14:23:16;;;;;;;23.03;16.80;;;;;;;;;;5064645;28;20609;-51
2023/03/09 14:25:43;;;;;;;23.17;17.90;;;;;;;;;;5063250;28;20317;-51